sensor_id;sensor_type;location;lat;lon;timestamp;pressure;altitude;pressure_sealevel;temperature;humidity
36454;BME280;22478;51.740;-1.314;2022-10-16T00:01:18;99168.45;;;7.60;100.00
36454;BME280;22478;51.740;-1.314;2022-10-16T00:03:46;99172.42;;;7.60;100.00
36454;BME280;22478;51.740;-1.314;2022-10-16T00:06:15;99175.12;;;8.50;96.58
36454;BME280;22478;51.740;-1.314;2022-10-16T00:08:43;99174.28;;;6.10;100.00
36454;BME280;22478;51.740;-1.314;2022-10-16T00:11:13;99183.57;;;6.05;100.00
36454;BME280;22478;51.740;-1.314;2022-10-16T00:13:41;99185.25;;;6.85;100.00
36454;BME280;22478;51.740;-1.314;2022-10-16T00:16:10;99186.68;;;5.60;100.00
36454;BME280;22478;51.740;-1.314;2022-10-16T00:18:37;99176.16;;;7.66;100.00
36454;BME280;22478;51.740;-1.314;2022-10-16T00:21:08;99178.14;;;7.41;100.00
36454;BME280;22478;51.740;-1.314;2022-10-16T00:23:36;99180.73;;;7.10;100.00
36454;BME280;22478;51.740;-1.314;2022-10-16T00:26:05;99193.41;;;3.79;100.00
36454;BME280;22478;51.740;-1.314;2022-10-16T00:28:33;99186.41;;;7.36;100.00
36454;BME280;22478;51.740;-1.314;2022-10-16T00:31:03;99187.57;;;5.85;100.00
36454;BME280;22478;51.740;-1.314;2022-10-16T00:33:31;99192.64;;;5.31;100.00
36454;BME280;22478;51.740;-1.314;2022-10-16T00:35:58;99190.33;;;7.64;100.00
36454;BME280;22478;51.740;-1.314;2022-10-16T00:38:26;99198.88;;;5.64;100.00
36454;BME280;22478;51.740;-1.314;2022-10-16T00:40:53;99202.11;;;4.54;100.00
36454;BME280;22478;51.740;-1.314;2022-10-16T00:43:39;99189.66;;;5.90;100.00
36454;BME280;22478;51.740;-1.314;2022-10-16T00:46:13;99190.37;;;6.18;100.00
36454;BME280;22478;51.740;-1.314;2022-10-16T00:48:44;99194.28;;;6.42;100.00
36454;BME280;22478;51.740;-1.314;2022-10-16T00:51:12;99190.45;;;6.41;100.00
36454;BME280;22478;51.740;-1.314;2022-10-16T00:53:41;99191.04;;;5.81;100.00
36454;BME280;22478;51.740;-1.314;2022-10-16T00:56:08;99193.29;;;4.45;100.00
36454;BME280;22478;51.740;-1.314;2022-10-16T00:58:35;99191.66;;;5.38;100.00
36454;BME280;22478;51.740;-1.314;2022-10-16T01:01:03;99192.68;;;5.39;100.00
36454;BME280;22478;51.740;-1.314;2022-10-16T01:03:32;99184.24;;;7.13;100.00
36454;BME280;22478;51.740;-1.314;2022-10-16T01:06:09;99193.67;;;6.29;100.00
36454;BME280;22478;51.740;-1.314;2022-10-16T01:08:45;99194.80;;;6.87;100.00
36454;BME280;22478;51.740;-1.314;2022-10-16T01:11:21;99203.91;;;6.62;100.00
36454;BME280;22478;51.740;-1.314;2022-10-16T01:13:54;99204.29;;;7.25;100.00
36454;BME280;22478;51.740;-1.314;2022-10-16T01:16:29;99208.39;;;6.00;100.00
36454;BME280;22478;51.740;-1.314;2022-10-16T01:19:04;99208.81;;;7.92;100.00
36454;BME280;22478;51.740;-1.314;2022-10-16T01:21:40;99216.54;;;6.60;100.00
36454;BME280;22478;51.740;-1.314;2022-10-16T01:24:14;99213.30;;;7.44;100.00
36454;BME280;22478;51.740;-1.314;2022-10-16T01:26:59;99211.44;;;6.87;100.00
36454;BME280;22478;51.740;-1.314;2022-10-16T01:29:29;99212.62;;;7.08;100.00
36454;BME280;22478;51.740;-1.314;2022-10-16T01:32:01;99217.29;;;7.28;100.00
36454;BME280;22478;51.740;-1.314;2022-10-16T01:34:35;99231.48;;;5.02;100.00
36454;BME280;22478;51.740;-1.314;2022-10-16T01:37:09;99221.41;;;7.59;100.00
36454;BME280;22478;51.740;-1.314;2022-10-16T01:39:39;99231.84;;;5.21;100.00
36454;BME280;22478;51.740;-1.314;2022-10-16T01:42:11;99236.39;;;7.02;100.00
36454;BME280;22478;51.740;-1.314;2022-10-16T01:44:41;99233.60;;;7.23;100.00
36454;BME280;22478;51.740;-1.314;2022-10-16T01:47:10;99243.32;;;4.03;100.00
36454;BME280;22478;51.740;-1.314;2022-10-16T01:49:41;99249.42;;;4.51;100.00
36454;BME280;22478;51.740;-1.314;2022-10-16T01:52:13;99254.15;;;5.84;100.00
36454;BME280;22478;51.740;-1.314;2022-10-16T01:54:44;99262.74;;;3.03;100.00
36454;BME280;22478;51.740;-1.314;2022-10-16T01:57:14;99265.90;;;5.43;100.00
36454;BME280;22478;51.740;-1.314;2022-10-16T01:59:45;99259.43;;;5.43;100.00
36454;BME280;22478;51.740;-1.314;2022-10-16T02:02:15;99260.89;;;6.10;100.00
36454;BME280;22478;51.740;-1.314;2022-10-16T02:04:46;99262.78;;;6.38;100.00
36454;BME280;22478;51.740;-1.314;2022-10-16T02:07:16;99262.70;;;5.76;100.00
36454;BME280;22478;51.740;-1.314;2022-10-16T02:09:43;99259.45;;;6.74;100.00
36454;BME280;22478;51.740;-1.314;2022-10-16T02:12:15;99262.92;;;6.36;100.00
36454;BME280;22478;51.740;-1.314;2022-10-16T02:14:44;99269.92;;;4.38;100.00
36454;BME280;22478;51.740;-1.314;2022-10-16T02:17:12;99262.48;;;7.31;100.00
36454;BME280;22478;51.740;-1.314;2022-10-16T02:19:41;99261.14;;;8.06;100.00
36454;BME280;22478;51.740;-1.314;2022-10-16T02:22:16;99260.04;;;7.52;100.00
36454;BME280;22478;51.740;-1.314;2022-10-16T02:24:52;99263.11;;;7.10;100.00
36454;BME280;22478;51.740;-1.314;2022-10-16T02:27:24;99270.54;;;6.88;100.00
36454;BME280;22478;51.740;-1.314;2022-10-16T02:29:57;99284.96;;;6.49;100.00
36454;BME280;22478;51.740;-1.314;2022-10-16T02:32:30;99288.10;;;4.71;100.00
36454;BME280;22478;51.740;-1.314;2022-10-16T02:35:00;99295.74;;;4.93;100.00
36454;BME280;22478;51.740;-1.314;2022-10-16T02:37:28;99286.97;;;7.54;100.00
36454;BME280;22478;51.740;-1.314;2022-10-16T02:39:58;99291.77;;;6.74;100.00
36454;BME280;22478;51.740;-1.314;2022-10-16T02:42:29;99292.35;;;7.08;100.00
36454;BME280;22478;51.740;-1.314;2022-10-16T02:44:56;99296.23;;;6.75;100.00
36454;BME280;22478;51.740;-1.314;2022-10-16T02:47:23;99304.29;;;6.31;100.00
36454;BME280;22478;51.740;-1.314;2022-10-16T02:49:50;99307.93;;;5.49;100.00
36454;BME280;22478;51.740;-1.314;2022-10-16T02:52:17;99304.66;;;7.45;94.91
36454;BME280;22478;51.740;-1.314;2022-10-16T02:54:44;99304.81;;;7.53;93.60
36454;BME280;22478;51.740;-1.314;2022-10-16T02:57:11;99307.94;;;8.17;87.81
36454;BME280;22478;51.740;-1.314;2022-10-16T02:59:38;99314.72;;;6.67;94.05
36454;BME280;22478;51.740;-1.314;2022-10-16T03:02:05;99316.29;;;7.00;95.60
36454;BME280;22478;51.740;-1.314;2022-10-16T03:04:31;99319.38;;;8.39;91.23
36454;BME280;22478;51.740;-1.314;2022-10-16T03:06:59;99327.54;;;7.20;93.22
36454;BME280;22478;51.740;-1.314;2022-10-16T03:09:25;99327.47;;;7.46;92.83
36454;BME280;22478;51.740;-1.314;2022-10-16T03:11:52;99331.48;;;7.59;93.26
36454;BME280;22478;51.740;-1.314;2022-10-16T03:14:20;99339.54;;;7.03;97.33
36454;BME280;22478;51.740;-1.314;2022-10-16T03:16:47;99340.98;;;6.76;97.59
36454;BME280;22478;51.740;-1.314;2022-10-16T03:19:16;99351.68;;;5.96;100.00
36454;BME280;22478;51.740;-1.314;2022-10-16T03:21:43;99348.60;;;7.40;94.69
36454;BME280;22478;51.740;-1.314;2022-10-16T03:24:10;99354.45;;;7.39;93.38
36454;BME280;22478;51.740;-1.314;2022-10-16T03:26:37;99350.93;;;8.15;92.39
36454;BME280;22478;51.740;-1.314;2022-10-16T03:29:05;99352.84;;;6.86;99.55
36454;BME280;22478;51.740;-1.314;2022-10-16T03:31:32;99350.63;;;7.73;93.58
36454;BME280;22478;51.740;-1.314;2022-10-16T03:34:00;99357.49;;;6.22;100.00
36454;BME280;22478;51.740;-1.314;2022-10-16T03:36:27;99356.09;;;6.79;100.00
36454;BME280;22478;51.740;-1.314;2022-10-16T03:38:54;99364.91;;;4.38;100.00
36454;BME280;22478;51.740;-1.314;2022-10-16T03:41:21;99369.17;;;5.16;100.00
36454;BME280;22478;51.740;-1.314;2022-10-16T03:43:48;99372.46;;;6.61;100.00
36454;BME280;22478;51.740;-1.314;2022-10-16T03:46:15;99370.78;;;7.06;100.00
36454;BME280;22478;51.740;-1.314;2022-10-16T03:48:42;99379.90;;;5.65;100.00
36454;BME280;22478;51.740;-1.314;2022-10-16T03:51:10;99379.37;;;6.67;100.00
36454;BME280;22478;51.740;-1.314;2022-10-16T03:53:36;99383.21;;;6.92;99.34
36454;BME280;22478;51.740;-1.314;2022-10-16T03:56:04;99385.80;;;7.32;97.27
36454;BME280;22478;51.740;-1.314;2022-10-16T03:58:31;99394.08;;;6.68;100.00
36454;BME280;22478;51.740;-1.314;2022-10-16T04:00:59;99390.00;;;8.28;94.29
36454;BME280;22478;51.740;-1.314;2022-10-16T04:03:25;99395.69;;;8.39;93.29
36454;BME280;22478;51.740;-1.314;2022-10-16T04:05:53;99402.49;;;7.64;94.17
36454;BME280;22478;51.740;-1.314;2022-10-16T04:08:20;99417.15;;;5.35;100.00
36454;BME280;22478;51.740;-1.314;2022-10-16T04:10:47;99419.25;;;7.37;98.24
36454;BME280;22478;51.740;-1.314;2022-10-16T04:13:14;99429.93;;;5.89;100.00
36454;BME280;22478;51.740;-1.314;2022-10-16T04:15:42;99429.43;;;7.91;97.24
36454;BME280;22478;51.740;-1.314;2022-10-16T04:18:11;99437.57;;;4.84;100.00
36454;BME280;22478;51.740;-1.314;2022-10-16T04:20:38;99436.93;;;7.68;98.48
36454;BME280;22478;51.740;-1.314;2022-10-16T04:23:05;99442.76;;;7.84;95.96
36454;BME280;22478;51.740;-1.314;2022-10-16T04:25:32;99454.08;;;4.51;100.00
36454;BME280;22478;51.740;-1.314;2022-10-16T04:27:59;99455.31;;;6.98;100.00
36454;BME280;22478;51.740;-1.314;2022-10-16T04:30:26;99461.02;;;6.23;100.00
36454;BME280;22478;51.740;-1.314;2022-10-16T04:32:54;99469.52;;;6.66;100.00
36454;BME280;22478;51.740;-1.314;2022-10-16T04:35:21;99470.03;;;7.94;97.73
36454;BME280;22478;51.740;-1.314;2022-10-16T04:37:48;99477.54;;;7.89;98.94
36454;BME280;22478;51.740;-1.314;2022-10-16T04:40:16;99470.25;;;8.89;92.04
36454;BME280;22478;51.740;-1.314;2022-10-16T04:42:43;99485.09;;;6.48;100.00
36454;BME280;22478;51.740;-1.314;2022-10-16T04:45:10;99491.89;;;7.52;98.92
36454;BME280;22478;51.740;-1.314;2022-10-16T04:47:38;99496.27;;;6.95;98.58
36454;BME280;22478;51.740;-1.314;2022-10-16T04:50:05;99495.69;;;8.10;94.16
36454;BME280;22478;51.740;-1.314;2022-10-16T04:52:33;99494.99;;;9.41;90.42
36454;BME280;22478;51.740;-1.314;2022-10-16T04:55:00;99507.73;;;7.68;96.53
36454;BME280;22478;51.740;-1.314;2022-10-16T04:57:27;99514.49;;;6.50;100.00
36454;BME280;22478;51.740;-1.314;2022-10-16T04:59:55;99514.11;;;8.14;96.17
36454;BME280;22478;51.740;-1.314;2022-10-16T05:02:21;99514.86;;;7.66;96.19
36454;BME280;22478;51.740;-1.314;2022-10-16T05:04:49;99515.85;;;7.65;96.69
36454;BME280;22478;51.740;-1.314;2022-10-16T05:07:16;99514.85;;;8.64;91.86
36454;BME280;22478;51.740;-1.314;2022-10-16T05:09:44;99526.77;;;7.70;95.09
36454;BME280;22478;51.740;-1.314;2022-10-16T05:12:11;99525.20;;;8.98;89.76
36454;BME280;22478;51.740;-1.314;2022-10-16T05:14:38;99539.27;;;7.97;92.35
36454;BME280;22478;51.740;-1.314;2022-10-16T05:17:06;99543.11;;;8.28;90.63
36454;BME280;22478;51.740;-1.314;2022-10-16T05:19:33;99542.10;;;8.77;88.51
36454;BME280;22478;51.740;-1.314;2022-10-16T05:22:00;99550.17;;;8.16;90.29
36454;BME280;22478;51.740;-1.314;2022-10-16T05:24:28;99549.35;;;8.33;91.33
36454;BME280;22478;51.740;-1.314;2022-10-16T05:26:55;99552.67;;;7.51;94.55
36454;BME280;22478;51.740;-1.314;2022-10-16T05:29:23;99556.43;;;8.28;94.44
36454;BME280;22478;51.740;-1.314;2022-10-16T05:31:51;99556.22;;;7.44;89.91
36454;BME280;22478;51.740;-1.314;2022-10-16T05:34:19;99558.39;;;8.04;89.15
36454;BME280;22478;51.740;-1.314;2022-10-16T05:36:46;99561.03;;;7.25;93.44
36454;BME280;22478;51.740;-1.314;2022-10-16T05:39:15;99563.48;;;7.81;95.98
36454;BME280;22478;51.740;-1.314;2022-10-16T05:41:42;99568.31;;;7.66;92.85
36454;BME280;22478;51.740;-1.314;2022-10-16T05:44:09;99572.68;;;8.28;90.00
36454;BME280;22478;51.740;-1.314;2022-10-16T05:46:37;99578.56;;;7.64;90.92
36454;BME280;22478;51.740;-1.314;2022-10-16T05:49:05;99579.01;;;8.54;91.82
36454;BME280;22478;51.740;-1.314;2022-10-16T05:51:32;99584.23;;;8.50;88.02
36454;BME280;22478;51.740;-1.314;2022-10-16T05:53:59;99591.30;;;7.44;95.35
36454;BME280;22478;51.740;-1.314;2022-10-16T05:56:26;99589.25;;;6.72;100.00
36454;BME280;22478;51.740;-1.314;2022-10-16T05:58:53;99597.32;;;8.04;92.88
36454;BME280;22478;51.740;-1.314;2022-10-16T06:01:20;99602.18;;;7.43;95.61
36454;BME280;22478;51.740;-1.314;2022-10-16T06:03:48;99605.02;;;6.27;98.11
36454;BME280;22478;51.740;-1.314;2022-10-16T06:06:17;99603.42;;;6.79;100.00
36454;BME280;22478;51.740;-1.314;2022-10-16T06:08:45;99605.76;;;6.75;97.14
36454;BME280;22478;51.740;-1.314;2022-10-16T06:11:14;99611.17;;;7.28;97.22
36454;BME280;22478;51.740;-1.314;2022-10-16T06:13:42;99616.67;;;8.19;92.29
36454;BME280;22478;51.740;-1.314;2022-10-16T06:16:10;99619.23;;;8.36;91.64
36454;BME280;22478;51.740;-1.314;2022-10-16T06:18:37;99622.18;;;7.63;93.33
36454;BME280;22478;51.740;-1.314;2022-10-16T06:21:08;99625.32;;;5.83;100.00
36454;BME280;22478;51.740;-1.314;2022-10-16T06:23:35;99624.56;;;6.49;97.48
36454;BME280;22478;51.740;-1.314;2022-10-16T06:26:05;99627.81;;;8.08;91.55
36454;BME280;22478;51.740;-1.314;2022-10-16T06:28:32;99629.48;;;7.48;91.36
36454;BME280;22478;51.740;-1.314;2022-10-16T06:31:00;99632.29;;;5.83;100.00
36454;BME280;22478;51.740;-1.314;2022-10-16T06:33:27;99633.11;;;6.92;100.00
36454;BME280;22478;51.740;-1.314;2022-10-16T06:36:00;99629.61;;;7.57;98.30
36454;BME280;22478;51.740;-1.314;2022-10-16T06:38:27;99636.46;;;8.41;93.78
36454;BME280;22478;51.740;-1.314;2022-10-16T06:40:55;99639.94;;;7.75;93.62
36454;BME280;22478;51.740;-1.314;2022-10-16T06:43:22;99638.44;;;7.34;95.20
36454;BME280;22478;51.740;-1.314;2022-10-16T06:45:51;99645.12;;;5.87;98.43
36454;BME280;22478;51.740;-1.314;2022-10-16T06:48:19;99649.24;;;6.89;99.65
36454;BME280;22478;51.740;-1.314;2022-10-16T06:50:55;99658.41;;;6.44;98.76
36454;BME280;22478;51.740;-1.314;2022-10-16T06:53:23;99668.45;;;6.54;98.99
36454;BME280;22478;51.740;-1.314;2022-10-16T06:55:50;99670.40;;;6.14;100.00
36454;BME280;22478;51.740;-1.314;2022-10-16T06:58:18;99665.63;;;7.43;98.37
36454;BME280;22478;51.740;-1.314;2022-10-16T07:00:45;99668.81;;;6.66;100.00
36454;BME280;22478;51.740;-1.314;2022-10-16T07:03:12;99675.40;;;6.35;100.00
36454;BME280;22478;51.740;-1.314;2022-10-16T07:05:40;99681.94;;;6.46;100.00
36454;BME280;22478;51.740;-1.314;2022-10-16T07:08:08;99690.78;;;6.46;100.00
36454;BME280;22478;51.740;-1.314;2022-10-16T07:10:36;99698.30;;;5.00;100.00
36454;BME280;22478;51.740;-1.314;2022-10-16T07:13:03;99696.49;;;5.54;100.00
36454;BME280;22478;51.740;-1.314;2022-10-16T07:15:30;99699.42;;;5.72;100.00
36454;BME280;22478;51.740;-1.314;2022-10-16T07:17:57;99715.47;;;5.63;100.00
36454;BME280;22478;51.740;-1.314;2022-10-16T07:20:24;99713.77;;;5.82;100.00
36454;BME280;22478;51.740;-1.314;2022-10-16T07:22:51;99720.94;;;6.52;100.00
36454;BME280;22478;51.740;-1.314;2022-10-16T07:25:19;99723.04;;;6.48;100.00
36454;BME280;22478;51.740;-1.314;2022-10-16T07:27:46;99727.61;;;6.44;100.00
36454;BME280;22478;51.740;-1.314;2022-10-16T07:30:13;99730.68;;;5.72;100.00
36454;BME280;22478;51.740;-1.314;2022-10-16T07:32:41;99741.37;;;5.42;100.00
36454;BME280;22478;51.740;-1.314;2022-10-16T07:35:09;99746.87;;;5.71;100.00
36454;BME280;22478;51.740;-1.314;2022-10-16T07:37:36;99745.25;;;6.28;100.00
36454;BME280;22478;51.740;-1.314;2022-10-16T07:40:04;99755.39;;;5.92;100.00
36454;BME280;22478;51.740;-1.314;2022-10-16T07:42:31;99756.16;;;6.21;100.00
36454;BME280;22478;51.740;-1.314;2022-10-16T07:44:59;99751.97;;;6.63;100.00
36454;BME280;22478;51.740;-1.314;2022-10-16T07:47:26;99764.39;;;4.27;100.00
36454;BME280;22478;51.740;-1.314;2022-10-16T07:49:53;99764.01;;;5.73;100.00
36454;BME280;22478;51.740;-1.314;2022-10-16T07:52:21;99765.54;;;5.91;100.00
36454;BME280;22478;51.740;-1.314;2022-10-16T07:54:48;99773.84;;;6.18;100.00
36454;BME280;22478;51.740;-1.314;2022-10-16T07:57:15;99786.97;;;5.20;100.00
36454;BME280;22478;51.740;-1.314;2022-10-16T07:59:42;99791.26;;;5.13;100.00
36454;BME280;22478;51.740;-1.314;2022-10-16T08:02:10;99790.56;;;5.03;100.00
36454;BME280;22478;51.740;-1.314;2022-10-16T08:04:37;99795.80;;;4.64;100.00
36454;BME280;22478;51.740;-1.314;2022-10-16T08:07:05;99804.49;;;2.15;100.00
36454;BME280;22478;51.740;-1.314;2022-10-16T08:09:32;99806.05;;;4.64;100.00
36454;BME280;22478;51.740;-1.314;2022-10-16T08:11:59;99806.92;;;3.08;100.00
36454;BME280;22478;51.740;-1.314;2022-10-16T08:14:27;99800.85;;;3.93;100.00
36454;BME280;22478;51.740;-1.314;2022-10-16T08:16:54;99810.39;;;4.72;100.00
36454;BME280;22478;51.740;-1.314;2022-10-16T08:19:21;99822.09;;;3.63;100.00
36454;BME280;22478;51.740;-1.314;2022-10-16T08:21:48;99831.43;;;3.79;100.00
36454;BME280;22478;51.740;-1.314;2022-10-16T08:24:15;99839.54;;;3.30;100.00
36454;BME280;22478;51.740;-1.314;2022-10-16T08:26:42;99835.46;;;5.49;100.00
36454;BME280;22478;51.740;-1.314;2022-10-16T08:29:10;99828.71;;;6.71;100.00
36454;BME280;22478;51.740;-1.314;2022-10-16T08:31:37;99832.72;;;6.62;100.00
36454;BME280;22478;51.740;-1.314;2022-10-16T08:34:04;99843.84;;;4.92;100.00
36454;BME280;22478;51.740;-1.314;2022-10-16T08:36:31;99841.21;;;5.41;100.00
36454;BME280;22478;51.740;-1.314;2022-10-16T08:38:59;99836.22;;;6.99;100.00
36454;BME280;22478;51.740;-1.314;2022-10-16T08:41:47;99849.09;;;6.15;100.00
36454;BME280;22478;51.740;-1.314;2022-10-16T08:44:49;99856.44;;;6.32;100.00
36454;BME280;22478;51.740;-1.314;2022-10-16T08:47:24;99860.20;;;5.92;100.00
36454;BME280;22478;51.740;-1.314;2022-10-16T08:49:57;99852.17;;;7.52;100.00
36454;BME280;22478;51.740;-1.314;2022-10-16T08:52:29;99858.45;;;6.66;100.00
36454;BME280;22478;51.740;-1.314;2022-10-16T08:54:57;99857.33;;;7.62;100.00
36454;BME280;22478;51.740;-1.314;2022-10-16T08:57:25;99858.80;;;6.71;100.00
36454;BME280;22478;51.740;-1.314;2022-10-16T08:59:53;99860.68;;;6.35;100.00
36454;BME280;22478;51.740;-1.314;2022-10-16T09:02:25;99865.53;;;6.80;100.00
36454;BME280;22478;51.740;-1.314;2022-10-16T09:05:02;99862.98;;;6.66;100.00
36454;BME280;22478;51.740;-1.314;2022-10-16T09:07:39;99867.09;;;5.38;100.00
36454;BME280;22478;51.740;-1.314;2022-10-16T09:10:22;99862.74;;;7.79;100.00
36454;BME280;22478;51.740;-1.314;2022-10-16T09:12:56;99863.91;;;7.82;100.00
36454;BME280;22478;51.740;-1.314;2022-10-16T09:15:29;99864.25;;;8.76;100.00
36454;BME280;22478;51.740;-1.314;2022-10-16T09:18:05;99868.44;;;7.31;100.00
36454;BME280;22478;51.740;-1.314;2022-10-16T09:20:42;99869.37;;;8.14;100.00
36454;BME280;22478;51.740;-1.314;2022-10-16T09:23:16;99871.53;;;8.63;100.00
36454;BME280;22478;51.740;-1.314;2022-10-16T09:25:46;99871.61;;;8.32;100.00
36454;BME280;22478;51.740;-1.314;2022-10-16T09:28:15;99874.09;;;9.09;100.00
36454;BME280;22478;51.740;-1.314;2022-10-16T09:30:43;99878.36;;;9.28;95.84
36454;BME280;22478;51.740;-1.314;2022-10-16T09:33:12;99886.59;;;9.09;98.22
36454;BME280;22478;51.740;-1.314;2022-10-16T09:35:42;99882.50;;;11.58;87.57
36454;BME280;22478;51.740;-1.314;2022-10-16T09:38:21;99886.72;;;12.30;79.08
36454;BME280;22478;51.740;-1.314;2022-10-16T09:40:49;99878.71;;;13.39;74.81
36454;BME280;22478;51.740;-1.314;2022-10-16T09:43:22;99878.30;;;15.85;71.90
36454;BME280;22478;51.740;-1.314;2022-10-16T09:45:58;99866.45;;;15.96;61.38
36454;BME280;22478;51.740;-1.314;2022-10-16T09:48:31;99863.45;;;16.67;58.13
36454;BME280;22478;51.740;-1.314;2022-10-16T09:51:02;99866.71;;;15.62;58.44
36454;BME280;22478;51.740;-1.314;2022-10-16T09:53:46;99862.74;;;18.60;53.31
36454;BME280;22478;51.740;-1.314;2022-10-16T09:56:22;99865.30;;;19.07;46.83
36454;BME280;22478;51.740;-1.314;2022-10-16T09:58:50;99868.84;;;18.04;48.55
36454;BME280;22478;51.740;-1.314;2022-10-16T10:01:19;99868.50;;;19.50;45.03
36454;BME280;22478;51.740;-1.314;2022-10-16T10:03:47;99871.11;;;21.22;42.22
36454;BME280;22478;51.740;-1.314;2022-10-16T10:06:19;99870.73;;;22.04;39.60
36454;BME280;22478;51.740;-1.314;2022-10-16T10:08:58;99882.03;;;17.84;43.10
36454;BME280;22478;51.740;-1.314;2022-10-16T10:11:47;99876.46;;;20.22;40.96
36454;BME280;22478;51.740;-1.314;2022-10-16T10:14:21;99881.87;;;17.75;42.05
36454;BME280;22478;51.740;-1.314;2022-10-16T10:16:51;99872.05;;;19.85;42.59
36454;BME280;22478;51.740;-1.314;2022-10-16T10:19:20;99873.62;;;19.54;40.68
36454;BME280;22478;51.740;-1.314;2022-10-16T10:21:49;99878.37;;;15.70;43.66
36454;BME280;22478;51.740;-1.314;2022-10-16T10:24:19;99861.76;;;22.16;39.87
36454;BME280;22478;51.740;-1.314;2022-10-16T10:26:52;99861.58;;;21.94;39.20
36454;BME280;22478;51.740;-1.314;2022-10-16T10:29:31;99861.40;;;24.37;35.85
36454;BME280;22478;51.740;-1.314;2022-10-16T10:32:08;99865.52;;;17.82;39.84
36454;BME280;22478;51.740;-1.314;2022-10-16T10:34:52;99858.39;;;19.71;39.80
36454;BME280;22478;51.740;-1.314;2022-10-16T10:37:32;99865.19;;;16.89;41.05
36454;BME280;22478;51.740;-1.314;2022-10-16T10:40:14;99846.29;;;22.59;36.27
36454;BME280;22478;51.740;-1.314;2022-10-16T10:42:49;99845.27;;;20.90;37.68
36454;BME280;22478;51.740;-1.314;2022-10-16T10:45:26;99843.77;;;19.83;39.74
36454;BME280;22478;51.740;-1.314;2022-10-16T10:48:03;99840.23;;;21.35;37.24
36454;BME280;22478;51.740;-1.314;2022-10-16T10:50:38;99840.45;;;23.17;33.62
36454;BME280;22478;51.740;-1.314;2022-10-16T10:53:17;99857.05;;;16.41;42.67
36454;BME280;22478;51.740;-1.314;2022-10-16T10:55:51;99850.30;;;23.70;34.76
36454;BME280;22478;51.740;-1.314;2022-10-16T10:58:43;99854.84;;;21.01;35.47
36454;BME280;22478;51.740;-1.314;2022-10-16T11:01:14;99851.57;;;22.37;37.00
36454;BME280;22478;51.740;-1.314;2022-10-16T11:03:51;99853.36;;;20.99;36.30
36454;BME280;22478;51.740;-1.314;2022-10-16T11:06:26;99858.21;;;19.78;37.09
36454;BME280;22478;51.740;-1.314;2022-10-16T11:09:02;99849.97;;;22.68;34.78
36454;BME280;22478;51.740;-1.314;2022-10-16T11:11:33;99857.55;;;16.20;41.06
36454;BME280;22478;51.740;-1.314;2022-10-16T11:14:05;99847.11;;;20.72;37.08
36454;BME280;22478;51.740;-1.314;2022-10-16T11:16:43;99843.61;;;22.59;36.30
36454;BME280;22478;51.740;-1.314;2022-10-16T11:19:18;99841.80;;;21.13;37.69
36454;BME280;22478;51.740;-1.314;2022-10-16T11:21:50;99844.84;;;19.94;37.05
36454;BME280;22478;51.740;-1.314;2022-10-16T11:24:22;99835.95;;;23.26;33.67
36454;BME280;22478;51.740;-1.314;2022-10-16T11:26:51;99827.64;;;24.70;32.09
36454;BME280;22478;51.740;-1.314;2022-10-16T11:29:25;99837.02;;;18.55;35.79
36454;BME280;22478;51.740;-1.314;2022-10-16T11:31:58;99833.37;;;21.53;33.57
36454;BME280;22478;51.740;-1.314;2022-10-16T11:34:29;99830.68;;;22.61;32.31
36454;BME280;22478;51.740;-1.314;2022-10-16T11:37:04;99831.12;;;21.44;32.50
36454;BME280;22478;51.740;-1.314;2022-10-16T11:39:33;99833.06;;;23.31;32.76
36454;BME280;22478;51.740;-1.314;2022-10-16T11:42:07;99830.84;;;22.43;32.06
36454;BME280;22478;51.740;-1.314;2022-10-16T11:44:46;99828.47;;;21.61;33.11
36454;BME280;22478;51.740;-1.314;2022-10-16T11:47:26;99827.67;;;18.39;37.20
36454;BME280;22478;51.740;-1.314;2022-10-16T11:49:59;99823.35;;;18.36;36.77
36454;BME280;22478;51.740;-1.314;2022-10-16T11:52:33;99824.34;;;17.64;36.88
36454;BME280;22478;51.740;-1.314;2022-10-16T11:55:13;99823.38;;;19.37;34.99
36454;BME280;22478;51.740;-1.314;2022-10-16T11:57:46;99820.79;;;18.68;37.10
36454;BME280;22478;51.740;-1.314;2022-10-16T12:00:21;99820.57;;;22.07;33.08
36454;BME280;22478;51.740;-1.314;2022-10-16T12:02:57;99817.59;;;20.95;35.05
36454;BME280;22478;51.740;-1.314;2022-10-16T12:05:35;99828.04;;;18.56;37.93
36454;BME280;22478;51.740;-1.314;2022-10-16T12:08:12;99823.23;;;20.27;36.78
36454;BME280;22478;51.740;-1.314;2022-10-16T12:10:42;99825.79;;;20.44;38.02
36454;BME280;22478;51.740;-1.314;2022-10-16T12:13:42;99822.11;;;21.71;34.58
36454;BME280;22478;51.740;-1.314;2022-10-16T12:16:22;99828.96;;;20.47;35.94
36454;BME280;22478;51.740;-1.314;2022-10-16T12:18:50;99826.07;;;17.15;38.24
36454;BME280;22478;51.740;-1.314;2022-10-16T12:21:31;99826.26;;;15.39;39.74
36454;BME280;22478;51.740;-1.314;2022-10-16T12:24:02;99823.18;;;18.83;37.89
36454;BME280;22478;51.740;-1.314;2022-10-16T12:26:32;99825.80;;;18.91;37.89
36454;BME280;22478;51.740;-1.314;2022-10-16T12:29:14;99834.94;;;16.25;40.11
36454;BME280;22478;51.740;-1.314;2022-10-16T12:31:46;99822.12;;;17.20;40.47
36454;BME280;22478;51.740;-1.314;2022-10-16T12:34:22;99823.43;;;15.17;44.22
36454;BME280;22478;51.740;-1.314;2022-10-16T12:36:50;99816.70;;;15.68;46.39
36454;BME280;22478;51.740;-1.314;2022-10-16T12:39:22;99806.03;;;17.72;43.61
36454;BME280;22478;51.740;-1.314;2022-10-16T12:42:00;99817.88;;;14.42;48.27
36454;BME280;22478;51.740;-1.314;2022-10-16T12:44:33;99825.91;;;13.68;47.87
36454;BME280;22478;51.740;-1.314;2022-10-16T12:47:01;99820.75;;;14.39;47.84
36454;BME280;22478;51.740;-1.314;2022-10-16T12:49:32;99816.32;;;15.92;46.61
36454;BME280;22478;51.740;-1.314;2022-10-16T12:52:02;99813.57;;;14.81;48.15
36454;BME280;22478;51.740;-1.314;2022-10-16T12:54:31;99819.69;;;14.57;50.83
36454;BME280;22478;51.740;-1.314;2022-10-16T12:57:12;99829.53;;;11.23;60.65
36454;BME280;22478;51.740;-1.314;2022-10-16T12:59:50;99823.73;;;12.74;61.03
36454;BME280;22478;51.740;-1.314;2022-10-16T13:02:55;99826.20;;;13.50;57.11
36454;BME280;22478;51.740;-1.314;2022-10-16T13:05:35;99830.53;;;12.08;62.56
36454;BME280;22478;51.740;-1.314;2022-10-16T13:08:18;99835.75;;;12.24;64.32
36454;BME280;22478;51.740;-1.314;2022-10-16T13:10:58;99832.66;;;12.90;61.94